sensor_id;sensor_type;location;lat;lon;timestamp;temperature;humidity
63051;SHT30;49136;47.416;19.402;2024-01-15T00:02:07;-2.53;99.99
63051;SHT30;49136;47.416;19.402;2024-01-15T00:04:40;-2.47;99.99
63051;SHT30;49136;47.416;19.402;2024-01-15T00:07:08;-2.51;99.99
63051;SHT30;49136;47.416;19.402;2024-01-15T00:09:34;-2.56;99.99
63051;SHT30;49136;47.416;19.402;2024-01-15T00:12:00;-2.62;99.99
63051;SHT30;49136;47.416;19.402;2024-01-15T00:14:26;-2.65;99.99
63051;SHT30;49136;47.416;19.402;2024-01-15T00:16:52;-2.61;99.99
63051;SHT30;49136;47.416;19.402;2024-01-15T00:19:23;-2.57;99.99
63051;SHT30;49136;47.416;19.402;2024-01-15T00:21:49;-2.56;99.99
63051;SHT30;49136;47.416;19.402;2024-01-15T00:24:14;-2.54;99.99
63051;SHT30;49136;47.416;19.402;2024-01-15T00:26:40;-2.53;99.99
63051;SHT30;49136;47.416;19.402;2024-01-15T00:29:09;-2.46;99.99
63051;SHT30;49136;47.416;19.402;2024-01-15T00:31:35;-2.49;99.99
63051;SHT30;49136;47.416;19.402;2024-01-15T00:34:00;-2.41;99.99
63051;SHT30;49136;47.416;19.402;2024-01-15T00:36:26;-2.41;99.99
63051;SHT30;49136;47.416;19.402;2024-01-15T00:38:51;-2.40;99.99
63051;SHT30;49136;47.416;19.402;2024-01-15T00:41:17;-2.33;99.99
63051;SHT30;49136;47.416;19.402;2024-01-15T00:43:44;-2.40;99.99
63051;SHT30;49136;47.416;19.402;2024-01-15T00:46:10;-2.39;99.99
63051;SHT30;49136;47.416;19.402;2024-01-15T00:48:35;-2.40;99.99
63051;SHT30;49136;47.416;19.402;2024-01-15T00:51:01;-2.36;99.99
63051;SHT30;49136;47.416;19.402;2024-01-15T00:53:26;-2.32;99.99
63051;SHT30;49136;47.416;19.402;2024-01-15T00:55:52;-2.28;99.99
63051;SHT30;49136;47.416;19.402;2024-01-15T00:58:18;-2.18;99.99
63051;SHT30;49136;47.416;19.402;2024-01-15T01:00:44;-2.01;99.99
63051;SHT30;49136;47.416;19.402;2024-01-15T01:03:09;-1.95;99.99
63051;SHT30;49136;47.416;19.402;2024-01-15T01:05:35;-1.85;99.99
63051;SHT30;49136;47.416;19.402;2024-01-15T01:08:00;-1.82;99.99
63051;SHT30;49136;47.416;19.402;2024-01-15T01:10:26;-1.84;99.99
63051;SHT30;49136;47.416;19.402;2024-01-15T01:12:51;-1.77;99.99
63051;SHT30;49136;47.416;19.402;2024-01-15T01:15:17;-1.71;99.99
63051;SHT30;49136;47.416;19.402;2024-01-15T01:17:42;-1.73;99.99
63051;SHT30;49136;47.416;19.402;2024-01-15T01:20:08;-1.71;99.99
63051;SHT30;49136;47.416;19.402;2024-01-15T01:22:36;-1.71;99.99
63051;SHT30;49136;47.416;19.402;2024-01-15T01:25:01;-1.71;99.99
63051;SHT30;49136;47.416;19.402;2024-01-15T01:27:27;-1.71;99.99
63051;SHT30;49136;47.416;19.402;2024-01-15T01:29:52;-1.70;99.99
63051;SHT30;49136;47.416;19.402;2024-01-15T01:32:18;-1.63;99.99
63051;SHT30;49136;47.416;19.402;2024-01-15T01:34:44;-1.62;99.99
63051;SHT30;49136;47.416;19.402;2024-01-15T01:37:10;-1.64;99.99
63051;SHT30;49136;47.416;19.402;2024-01-15T01:39:38;-1.70;99.99
63051;SHT30;49136;47.416;19.402;2024-01-15T01:42:04;-1.73;99.99
63051;SHT30;49136;47.416;19.402;2024-01-15T01:44:29;-1.78;99.99
63051;SHT30;49136;47.416;19.402;2024-01-15T01:46:56;-1.78;99.99
63051;SHT30;49136;47.416;19.402;2024-01-15T01:49:23;-1.84;99.99
63051;SHT30;49136;47.416;19.402;2024-01-15T01:51:49;-1.90;99.99
63051;SHT30;49136;47.416;19.402;2024-01-15T01:54:14;-1.92;99.99
63051;SHT30;49136;47.416;19.402;2024-01-15T01:56:41;-1.99;99.99
63051;SHT30;49136;47.416;19.402;2024-01-15T01:59:07;-2.02;99.99
63051;SHT30;49136;47.416;19.402;2024-01-15T02:01:35;-2.08;99.99
63051;SHT30;49136;47.416;19.402;2024-01-15T02:04:00;-2.13;99.99
63051;SHT30;49136;47.416;19.402;2024-01-15T02:06:26;-2.23;99.99
63051;SHT30;49136;47.416;19.402;2024-01-15T02:08:52;-2.29;99.99
63051;SHT30;49136;47.416;19.402;2024-01-15T02:11:17;-2.34;99.99
63051;SHT30;49136;47.416;19.402;2024-01-15T02:13:43;-2.43;99.99
63051;SHT30;49136;47.416;19.402;2024-01-15T02:16:08;-2.53;99.99
63051;SHT30;49136;47.416;19.402;2024-01-15T02:18:44;-2.62;99.99
63051;SHT30;49136;47.416;19.402;2024-01-15T02:21:09;-2.74;99.99
63051;SHT30;49136;47.416;19.402;2024-01-15T02:23:36;-2.69;99.99
63051;SHT30;49136;47.416;19.402;2024-01-15T02:26:02;-2.81;99.99
63051;SHT30;49136;47.416;19.402;2024-01-15T02:28:27;-2.86;99.99
63051;SHT30;49136;47.416;19.402;2024-01-15T02:30:53;-2.91;99.99
63051;SHT30;49136;47.416;19.402;2024-01-15T02:33:18;-2.89;99.99
63051;SHT30;49136;47.416;19.402;2024-01-15T02:35:44;-2.71;99.99
63051;SHT30;49136;47.416;19.402;2024-01-15T02:38:11;-2.75;99.99
63051;SHT30;49136;47.416;19.402;2024-01-15T02:40:38;-2.53;99.99
63051;SHT30;49136;47.416;19.402;2024-01-15T02:43:04;-2.65;99.99
63051;SHT30;49136;47.416;19.402;2024-01-15T02:45:29;-2.69;99.99
63051;SHT30;49136;47.416;19.402;2024-01-15T02:47:55;-2.74;99.99
63051;SHT30;49136;47.416;19.402;2024-01-15T02:50:20;-2.84;99.99
63051;SHT30;49136;47.416;19.402;2024-01-15T02:52:46;-2.74;99.99
63051;SHT30;49136;47.416;19.402;2024-01-15T02:55:11;-2.99;99.99
63051;SHT30;49136;47.416;19.402;2024-01-15T02:57:37;-3.10;99.99
63051;SHT30;49136;47.416;19.402;2024-01-15T03:00:02;-3.19;99.99
63051;SHT30;49136;47.416;19.402;2024-01-15T03:02:29;-3.19;99.99
63051;SHT30;49136;47.416;19.402;2024-01-15T03:04:57;-3.27;99.99
63051;SHT30;49136;47.416;19.402;2024-01-15T03:07:22;-3.28;99.99
63051;SHT30;49136;47.416;19.402;2024-01-15T03:09:47;-3.37;99.99
63051;SHT30;49136;47.416;19.402;2024-01-15T03:12:13;-3.41;99.99
63051;SHT30;49136;47.416;19.402;2024-01-15T03:14:38;-3.45;99.99
63051;SHT30;49136;47.416;19.402;2024-01-15T03:17:04;-3.63;99.99
63051;SHT30;49136;47.416;19.402;2024-01-15T03:19:29;-3.72;99.99
63051;SHT30;49136;47.416;19.402;2024-01-15T03:21:56;-3.85;99.99
63051;SHT30;49136;47.416;19.402;2024-01-15T03:24:21;-3.96;99.99
63051;SHT30;49136;47.416;19.402;2024-01-15T03:26:47;-4.11;99.99
63051;SHT30;49136;47.416;19.402;2024-01-15T03:29:12;-4.21;99.99
63051;SHT30;49136;47.416;19.402;2024-01-15T03:31:37;-4.25;99.99
63051;SHT30;49136;47.416;19.402;2024-01-15T03:34:03;-4.22;99.99
63051;SHT30;49136;47.416;19.402;2024-01-15T03:36:28;-3.90;99.99
63051;SHT30;49136;47.416;19.402;2024-01-15T03:38:54;-3.75;99.99
63051;SHT30;49136;47.416;19.402;2024-01-15T03:41:19;-3.72;99.99
63051;SHT30;49136;47.416;19.402;2024-01-15T03:43:45;-3.75;99.99
63051;SHT30;49136;47.416;19.402;2024-01-15T03:46:10;-3.90;99.99
63051;SHT30;49136;47.416;19.402;2024-01-15T03:48:35;-4.07;99.99
63051;SHT30;49136;47.416;19.402;2024-01-15T03:51:01;-4.21;99.99
63051;SHT30;49136;47.416;19.402;2024-01-15T03:53:26;-4.36;99.99
63051;SHT30;49136;47.416;19.402;2024-01-15T03:55:52;-4.44;99.99
63051;SHT30;49136;47.416;19.402;2024-01-15T03:58:17;-4.42;99.99
63051;SHT30;49136;47.416;19.402;2024-01-15T04:00:43;-4.39;99.99
63051;SHT30;49136;47.416;19.402;2024-01-15T04:03:09;-4.31;99.99
63051;SHT30;49136;47.416;19.402;2024-01-15T04:05:35;-4.10;99.99
63051;SHT30;49136;47.416;19.402;2024-01-15T04:08:00;-3.98;99.99
63051;SHT30;49136;47.416;19.402;2024-01-15T04:10:26;-3.96;99.99
63051;SHT30;49136;47.416;19.402;2024-01-15T04:12:51;-4.04;99.99
63051;SHT30;49136;47.416;19.402;2024-01-15T04:15:17;-4.10;99.99
63051;SHT30;49136;47.416;19.402;2024-01-15T04:17:42;-4.26;99.99
63051;SHT30;49136;47.416;19.402;2024-01-15T04:20:08;-4.42;99.99
63051;SHT30;49136;47.416;19.402;2024-01-15T04:22:35;-4.53;99.99
63051;SHT30;49136;47.416;19.402;2024-01-15T04:25:00;-4.66;99.99
63051;SHT30;49136;47.416;19.402;2024-01-15T04:27:26;-4.73;99.99
63051;SHT30;49136;47.416;19.402;2024-01-15T04:29:51;-4.84;99.99
63051;SHT30;49136;47.416;19.402;2024-01-15T04:32:17;-4.92;99.99
63051;SHT30;49136;47.416;19.402;2024-01-15T04:34:42;-5.00;99.99
63051;SHT30;49136;47.416;19.402;2024-01-15T04:37:07;-5.04;99.99
63051;SHT30;49136;47.416;19.402;2024-01-15T04:39:33;-5.08;99.99
63051;SHT30;49136;47.416;19.402;2024-01-15T04:41:58;-5.04;99.99
63051;SHT30;49136;47.416;19.402;2024-01-15T04:44:23;-4.92;99.99
63051;SHT30;49136;47.416;19.402;2024-01-15T04:46:49;-4.72;99.99
63051;SHT30;49136;47.416;19.402;2024-01-15T04:49:14;-4.85;99.99
63051;SHT30;49136;47.416;19.402;2024-01-15T04:51:40;-4.91;99.99
63051;SHT30;49136;47.416;19.402;2024-01-15T04:54:05;-4.92;99.99
63051;SHT30;49136;47.416;19.402;2024-01-15T04:56:30;-5.04;99.99
63051;SHT30;49136;47.416;19.402;2024-01-15T04:58:56;-5.00;99.99
63051;SHT30;49136;47.416;19.402;2024-01-15T05:01:21;-4.97;99.99
63051;SHT30;49136;47.416;19.402;2024-01-15T05:03:46;-5.04;99.99
63051;SHT30;49136;47.416;19.402;2024-01-15T05:06:12;-5.19;99.99
63051;SHT30;49136;47.416;19.402;2024-01-15T05:08:37;-5.25;99.99
63051;SHT30;49136;47.416;19.402;2024-01-15T05:11:03;-5.20;99.99
63051;SHT30;49136;47.416;19.402;2024-01-15T05:13:28;-5.32;99.99
63051;SHT30;49136;47.416;19.402;2024-01-15T05:15:54;-5.43;99.99
63051;SHT30;49136;47.416;19.402;2024-01-15T05:18:19;-5.46;99.99
63051;SHT30;49136;47.416;19.402;2024-01-15T05:20:45;-5.47;99.99
63051;SHT30;49136;47.416;19.402;2024-01-15T05:23:10;-5.54;99.99
63051;SHT30;49136;47.416;19.402;2024-01-15T05:25:35;-5.60;99.99
63051;SHT30;49136;47.416;19.402;2024-01-15T05:28:01;-5.63;99.99
63051;SHT30;49136;47.416;19.402;2024-01-15T05:30:27;-5.70;99.99
63051;SHT30;49136;47.416;19.402;2024-01-15T05:32:52;-5.61;99.99
63051;SHT30;49136;47.416;19.402;2024-01-15T05:35:18;-5.60;99.99
63051;SHT30;49136;47.416;19.402;2024-01-15T05:37:44;-5.54;99.99
63051;SHT30;49136;47.416;19.402;2024-01-15T05:40:11;-5.59;99.99
63051;SHT30;49136;47.416;19.402;2024-01-15T05:42:37;-5.60;99.99
63051;SHT30;49136;47.416;19.402;2024-01-15T05:45:04;-5.63;99.99
63051;SHT30;49136;47.416;19.402;2024-01-15T05:47:30;-5.67;99.99
63051;SHT30;49136;47.416;19.402;2024-01-15T05:49:56;-5.70;99.99
63051;SHT30;49136;47.416;19.402;2024-01-15T05:52:22;-5.74;99.99
63051;SHT30;49136;47.416;19.402;2024-01-15T05:54:47;-5.75;99.99
63051;SHT30;49136;47.416;19.402;2024-01-15T05:57:13;-5.81;99.99
63051;SHT30;49136;47.416;19.402;2024-01-15T05:59:38;-5.82;99.99
63051;SHT30;49136;47.416;19.402;2024-01-15T06:02:04;-5.71;99.99
63051;SHT30;49136;47.416;19.402;2024-01-15T06:04:29;-5.71;99.99
63051;SHT30;49136;47.416;19.402;2024-01-15T06:06:55;-5.77;99.99
63051;SHT30;49136;47.416;19.402;2024-01-15T06:09:20;-5.84;99.99
63051;SHT30;49136;47.416;19.402;2024-01-15T06:11:47;-5.84;99.99
63051;SHT30;49136;47.416;19.402;2024-01-15T06:14:17;-5.75;99.99
63051;SHT30;49136;47.416;19.402;2024-01-15T06:16:42;-5.79;99.99
63051;SHT30;49136;47.416;19.402;2024-01-15T06:19:08;-5.84;99.99
63051;SHT30;49136;47.416;19.402;2024-01-15T06:21:33;-5.86;99.99
63051;SHT30;49136;47.416;19.402;2024-01-15T06:23:59;-5.85;99.99
63051;SHT30;49136;47.416;19.402;2024-01-15T06:26:24;-5.89;99.99
63051;SHT30;49136;47.416;19.402;2024-01-15T06:28:50;-5.75;99.99
63051;SHT30;49136;47.416;19.402;2024-01-15T06:31:15;-5.73;99.99
63051;SHT30;49136;47.416;19.402;2024-01-15T06:33:41;-5.60;99.99
63051;SHT30;49136;47.416;19.402;2024-01-15T06:36:07;-5.54;99.99
63051;SHT30;49136;47.416;19.402;2024-01-15T06:38:32;-5.53;99.99
63051;SHT30;49136;47.416;19.402;2024-01-15T06:40:58;-5.43;99.99
63051;SHT30;49136;47.416;19.402;2024-01-15T06:43:24;-5.42;99.99
63051;SHT30;49136;47.416;19.402;2024-01-15T06:45:52;-5.35;99.99
63051;SHT30;49136;47.416;19.402;2024-01-15T06:48:17;-5.25;99.99
63051;SHT30;49136;47.416;19.402;2024-01-15T06:50:43;-5.13;99.99
63051;SHT30;49136;47.416;19.402;2024-01-15T06:53:08;-5.00;99.99
63051;SHT30;49136;47.416;19.402;2024-01-15T06:55:34;-4.92;99.99
63051;SHT30;49136;47.416;19.402;2024-01-15T06:57:59;-4.76;99.99
63051;SHT30;49136;47.416;19.402;2024-01-15T07:00:25;-4.70;99.99
63051;SHT30;49136;47.416;19.402;2024-01-15T07:02:51;-4.62;99.99
63051;SHT30;49136;47.416;19.402;2024-01-15T07:05:17;-4.56;99.99
63051;SHT30;49136;47.416;19.402;2024-01-15T07:07:42;-4.52;99.99
63051;SHT30;49136;47.416;19.402;2024-01-15T07:10:08;-4.42;99.99
63051;SHT30;49136;47.416;19.402;2024-01-15T07:12:34;-4.39;99.99
63051;SHT30;49136;47.416;19.402;2024-01-15T07:14:59;-4.31;99.99
63051;SHT30;49136;47.416;19.402;2024-01-15T07:17:25;-4.11;99.99
63051;SHT30;49136;47.416;19.402;2024-01-15T07:19:50;-4.00;99.99
63051;SHT30;49136;47.416;19.402;2024-01-15T07:22:15;-3.89;99.99
63051;SHT30;49136;47.416;19.402;2024-01-15T07:24:43;-3.78;99.99
63051;SHT30;49136;47.416;19.402;2024-01-15T07:27:08;-3.73;99.99
63051;SHT30;49136;47.416;19.402;2024-01-15T07:29:34;-3.66;99.99
63051;SHT30;49136;47.416;19.402;2024-01-15T07:32:03;-3.63;99.99
63051;SHT30;49136;47.416;19.402;2024-01-15T07:34:28;-3.48;99.99
63051;SHT30;49136;47.416;19.402;2024-01-15T07:36:54;-3.48;99.99
63051;SHT30;49136;47.416;19.402;2024-01-15T07:39:19;-3.47;99.99
63051;SHT30;49136;47.416;19.402;2024-01-15T07:41:45;-3.51;99.99
63051;SHT30;49136;47.416;19.402;2024-01-15T07:44:10;-3.41;99.99
63051;SHT30;49136;47.416;19.402;2024-01-15T07:46:35;-3.41;99.99
63051;SHT30;49136;47.416;19.402;2024-01-15T07:49:01;-3.45;99.99
63051;SHT30;49136;47.416;19.402;2024-01-15T07:51:27;-3.37;99.99
63051;SHT30;49136;47.416;19.402;2024-01-15T07:53:55;-3.27;99.99
63051;SHT30;49136;47.416;19.402;2024-01-15T07:56:21;-3.27;99.99
63051;SHT30;49136;47.416;19.402;2024-01-15T07:58:46;-3.21;99.99
63051;SHT30;49136;47.416;19.402;2024-01-15T08:01:12;-3.21;99.99
63051;SHT30;49136;47.416;19.402;2024-01-15T08:03:37;-3.16;99.99
63051;SHT30;49136;47.416;19.402;2024-01-15T08:06:03;-3.10;99.99
63051;SHT30;49136;47.416;19.402;2024-01-15T08:08:28;-3.14;99.99
63051;SHT30;49136;47.416;19.402;2024-01-15T08:10:54;-3.20;99.99
63051;SHT30;49136;47.416;19.402;2024-01-15T08:13:19;-3.17;99.99
63051;SHT30;49136;47.416;19.402;2024-01-15T08:15:45;-3.14;99.99
63051;SHT30;49136;47.416;19.402;2024-01-15T08:18:11;-3.03;99.99
63051;SHT30;49136;47.416;19.402;2024-01-15T08:20:36;-2.81;99.99
63051;SHT30;49136;47.416;19.402;2024-01-15T08:23:02;-2.56;99.99
63051;SHT30;49136;47.416;19.402;2024-01-15T08:25:28;-2.36;99.99
63051;SHT30;49136;47.416;19.402;2024-01-15T08:27:53;-2.22;99.99
63051;SHT30;49136;47.416;19.402;2024-01-15T08:30:19;-2.12;99.99
63051;SHT30;49136;47.416;19.402;2024-01-15T08:32:45;-1.92;99.99
63051;SHT30;49136;47.416;19.402;2024-01-15T08:35:13;-1.78;99.99
63051;SHT30;49136;47.416;19.402;2024-01-15T08:37:38;-1.66;99.99
63051;SHT30;49136;47.416;19.402;2024-01-15T08:40:04;-1.49;99.99
63051;SHT30;49136;47.416;19.402;2024-01-15T08:42:30;-1.36;99.99
63051;SHT30;49136;47.416;19.402;2024-01-15T08:44:55;-1.18;99.99
63051;SHT30;49136;47.416;19.402;2024-01-15T08:47:20;-0.97;99.99
63051;SHT30;49136;47.416;19.402;2024-01-15T08:49:46;-0.72;99.99
63051;SHT30;49136;47.416;19.402;2024-01-15T08:52:12;-0.55;99.99
63051;SHT30;49136;47.416;19.402;2024-01-15T08:54:37;-0.39;99.99
63051;SHT30;49136;47.416;19.402;2024-01-15T08:57:03;-0.17;99.99
63051;SHT30;49136;47.416;19.402;2024-01-15T08:59:28;0.10;99.99
63051;SHT30;49136;47.416;19.402;2024-01-15T09:01:54;0.31;99.99
63051;SHT30;49136;47.416;19.402;2024-01-15T09:04:22;0.56;99.99
63051;SHT30;49136;47.416;19.402;2024-01-15T09:06:48;0.83;99.14
63051;SHT30;49136;47.416;19.402;2024-01-15T09:09:13;1.04;97.08
63051;SHT30;49136;47.416;19.402;2024-01-15T09:11:41;1.38;96.98
63051;SHT30;49136;47.416;19.402;2024-01-15T09:14:07;1.56;94.26
63051;SHT30;49136;47.416;19.402;2024-01-15T09:16:33;1.66;93.62
63051;SHT30;49136;47.416;19.402;2024-01-15T09:18:59;1.89;92.55
63051;SHT30;49136;47.416;19.402;2024-01-15T09:21:25;2.15;91.64
63051;SHT30;49136;47.416;19.402;2024-01-15T09:23:50;2.44;89.18
63051;SHT30;49136;47.416;19.402;2024-01-15T09:26:16;2.50;88.87
63051;SHT30;49136;47.416;19.402;2024-01-15T09:28:41;2.68;87.36
63051;SHT30;49136;47.416;19.402;2024-01-15T09:31:07;2.93;86.09
63051;SHT30;49136;47.416;19.402;2024-01-15T09:33:34;3.00;84.53
63051;SHT30;49136;47.416;19.402;2024-01-15T09:36:03;3.26;85.30
63051;SHT30;49136;47.416;19.402;2024-01-15T09:38:29;3.35;82.74
63051;SHT30;49136;47.416;19.402;2024-01-15T09:40:57;3.42;82.41
63051;SHT30;49136;47.416;19.402;2024-01-15T09:43:22;3.37;80.38
63051;SHT30;49136;47.416;19.402;2024-01-15T09:45:49;3.50;79.11
63051;SHT30;49136;47.416;19.402;2024-01-15T09:48:15;3.68;78.54
63051;SHT30;49136;47.416;19.402;2024-01-15T09:50:41;3.93;80.52
63051;SHT30;49136;47.416;19.402;2024-01-15T09:53:08;4.07;79.47
63051;SHT30;49136;47.416;19.402;2024-01-15T09:55:36;4.13;78.65
63051;SHT30;49136;47.416;19.402;2024-01-15T09:58:03;4.22;77.56
63051;SHT30;49136;47.416;19.402;2024-01-15T10:00:29;4.37;77.16
63051;SHT30;49136;47.416;19.402;2024-01-15T10:02:56;4.30;74.70
63051;SHT30;49136;47.416;19.402;2024-01-15T10:05:22;4.17;75.35
63051;SHT30;49136;47.416;19.402;2024-01-15T10:07:47;4.22;75.27
63051;SHT30;49136;47.416;19.402;2024-01-15T10:10:15;4.49;76.15
63051;SHT30;49136;47.416;19.402;2024-01-15T10:12:41;4.60;75.60
63051;SHT30;49136;47.416;19.402;2024-01-15T10:15:09;4.52;74.56
63051;SHT30;49136;47.416;19.402;2024-01-15T10:17:37;4.56;74.79
63051;SHT30;49136;47.416;19.402;2024-01-15T10:20:08;4.63;73.92
63051;SHT30;49136;47.416;19.402;2024-01-15T10:22:35;5.00;74.99
63051;SHT30;49136;47.416;19.402;2024-01-15T10:25:03;4.77;72.49
63051;SHT30;49136;47.416;19.402;2024-01-15T10:27:29;5.18;74.64
63051;SHT30;49136;47.416;19.402;2024-01-15T10:29:54;5.28;73.26
63051;SHT30;49136;47.416;19.402;2024-01-15T10:32:23;5.47;72.54
63051;SHT30;49136;47.416;19.402;2024-01-15T10:34:52;5.56;72.20
63051;SHT30;49136;47.416;19.402;2024-01-15T10:37:17;5.36;71.06
63051;SHT30;49136;47.416;19.402;2024-01-15T10:39:43;5.91;74.74
63051;SHT30;49136;47.416;19.402;2024-01-15T10:42:09;6.21;73.24
63051;SHT30;49136;47.416;19.402;2024-01-15T10:44:35;6.33;72.39
63051;SHT30;49136;47.416;19.402;2024-01-15T10:47:00;6.28;71.49
63051;SHT30;49136;47.416;19.402;2024-01-15T10:49:26;6.53;72.52
63051;SHT30;49136;47.416;19.402;2024-01-15T10:51:53;6.51;71.02
63051;SHT30;49136;47.416;19.402;2024-01-15T10:54:19;6.64;70.86
63051;SHT30;49136;47.416;19.402;2024-01-15T10:56:45;6.64;69.63
63051;SHT30;49136;47.416;19.402;2024-01-15T10:59:12;6.61;69.33
63051;SHT30;49136;47.416;19.402;2024-01-15T11:01:38;6.53;68.52
63051;SHT30;49136;47.416;19.402;2024-01-15T11:04:04;6.89;71.79
63051;SHT30;49136;47.416;19.402;2024-01-15T11:06:41;7.00;69.93
63051;SHT30;49136;47.416;19.402;2024-01-15T11:09:07;7.03;69.53
63051;SHT30;49136;47.416;19.402;2024-01-15T11:11:35;7.06;69.38
63051;SHT30;49136;47.416;19.402;2024-01-15T11:14:02;6.95;67.17
63051;SHT30;49136;47.416;19.402;2024-01-15T11:16:53;6.81;68.73
63051;SHT30;49136;47.416;19.402;2024-01-15T11:19:19;6.98;70.62
63051;SHT30;49136;47.416;19.402;2024-01-15T11:21:44;6.61;65.54
63051;SHT30;49136;47.416;19.402;2024-01-15T11:24:10;6.63;68.05
63051;SHT30;49136;47.416;19.402;2024-01-15T11:37:15;7.06;69.26
63051;SHT30;49136;47.416;19.402;2024-01-15T11:39:42;7.27;67.80
63051;SHT30;49136;47.416;19.402;2024-01-15T11:42:10;7.34;66.10
63051;SHT30;49136;47.416;19.402;2024-01-15T11:44:36;7.41;66.38
63051;SHT30;49136;47.416;19.402;2024-01-15T11:47:06;6.99;64.34
63051;SHT30;49136;47.416;19.402;2024-01-15T11:50:01;7.19;66.01
63051;SHT30;49136;47.416;19.402;2024-01-15T11:52:32;7.47;67.42
63051;SHT30;49136;47.416;19.402;2024-01-15T11:55:11;7.37;65.08
63051;SHT30;49136;47.416;19.402;2024-01-15T11:57:44;7.44;65.95
63051;SHT30;49136;47.416;19.402;2024-01-15T12:00:11;7.19;65.25
63051;SHT30;49136;47.416;19.402;2024-01-15T12:02:39;7.12;66.61
63051;SHT30;49136;47.416;19.402;2024-01-15T12:05:05;7.13;66.76
63051;SHT30;49136;47.416;19.402;2024-01-15T12:07:30;6.85;65.11
63051;SHT30;49136;47.416;19.402;2024-01-15T12:09:56;6.58;66.14
63051;SHT30;49136;47.416;19.402;2024-01-15T12:12:32;6.25;65.66
63051;SHT30;49136;47.416;19.402;2024-01-15T12:15:01;6.25;66.31
63051;SHT30;49136;47.416;19.402;2024-01-15T12:17:26;6.54;68.75
63051;SHT30;49136;47.416;19.402;2024-01-15T12:19:52;6.61;67.73
63051;SHT30;49136;47.416;19.402;2024-01-15T12:22:17;6.41;66.93
63051;SHT30;49136;47.416;19.402;2024-01-15T12:24:43;6.49;66.76
63051;SHT30;49136;47.416;19.402;2024-01-15T12:27:08;6.05;66.19
63051;SHT30;49136;47.416;19.402;2024-01-15T12:29:34;6.32;67.20
63051;SHT30;49136;47.416;19.402;2024-01-15T12:31:59;6.39;67.29
63051;SHT30;49136;47.416;19.402;2024-01-15T12:34:29;6.47;68.00
63051;SHT30;49136;47.416;19.402;2024-01-15T12:36:57;6.73;68.29
63051;SHT30;49136;47.416;19.402;2024-01-15T12:39:22;6.49;66.14
63051;SHT30;49136;47.416;19.402;2024-01-15T12:41:48;6.44;67.01
63051;SHT30;49136;47.416;19.402;2024-01-15T12:44:13;6.57;66.28
63051;SHT30;49136;47.416;19.402;2024-01-15T12:46:38;6.50;66.34
63051;SHT30;49136;47.416;19.402;2024-01-15T12:49:04;6.34;66.42
63051;SHT30;49136;47.416;19.402;2024-01-15T12:51:30;6.33;67.19
63051;SHT30;49136;47.416;19.402;2024-01-15T12:53:55;6.21;66.03
63051;SHT30;49136;47.416;19.402;2024-01-15T12:56:21;6.29;66.73
63051;SHT30;49136;47.416;19.402;2024-01-15T12:58:46;6.28;65.75
63051;SHT30;49136;47.416;19.402;2024-01-15T13:01:12;6.21;66.27
63051;SHT30;49136;47.416;19.402;2024-01-15T13:03:37;6.23;66.19
63051;SHT30;49136;47.416;19.402;2024-01-15T13:06:03;5.91;65.99
63051;SHT30;49136;47.416;19.402;2024-01-15T13:08:28;6.09;67.36
63051;SHT30;49136;47.416;19.402;2024-01-15T13:10:55;6.01;66.79
63051;SHT30;49136;47.416;19.402;2024-01-15T13:13:22;5.75;66.13
63051;SHT30;49136;47.416;19.402;2024-01-15T13:15:47;5.73;66.60
63051;SHT30;49136;47.416;19.402;2024-01-15T13:18:13;5.77;67.27
63051;SHT30;49136;47.416;19.402;2024-01-15T13:20:38;5.77;67.20
63051;SHT30;49136;47.416;19.402;2024-01-15T13:23:04;5.64;66.60
63051;SHT30;49136;47.416;19.402;2024-01-15T13:25:29;5.57;67.70
63051;SHT30;49136;47.416;19.402;2024-01-15T13:27:55;5.66;68.24
63051;SHT30;49136;47.416;19.402;2024-01-15T13:30:20;5.78;68.71
63051;SHT30;49136;47.416;19.402;2024-01-15T13:32:46;5.77;68.83
63051;SHT30;49136;47.416;19.402;2024-01-15T13:35:13;5.69;69.21
63051;SHT30;49136;47.416;19.402;2024-01-15T13:37:45;5.62;68.09
63051;SHT30;49136;47.416;19.402;2024-01-15T13:40:10;5.66;69.00
63051;SHT30;49136;47.416;19.402;2024-01-15T13:42:41;5.59;69.34
63051;SHT30;49136;47.416;19.402;2024-01-15T13:45:07;5.64;69.53
63051;SHT30;49136;47.416;19.402;2024-01-15T13:47:32;5.53;69.99
63051;SHT30;49136;47.416;19.402;2024-01-15T13:49:58;5.46;70.08
63051;SHT30;49136;47.416;19.402;2024-01-15T13:52:24;5.46;70.42
63051;SHT30;49136;47.416;19.402;2024-01-15T13:54:49;5.27;70.00
63051;SHT30;49136;47.416;19.402;2024-01-15T13:57:15;5.12;69.76
63051;SHT30;49136;47.416;19.402;2024-01-15T13:59:41;5.04;69.78
63051;SHT30;49136;47.416;19.402;2024-01-15T14:02:06;4.93;70.89
63051;SHT30;49136;47.416;19.402;2024-01-15T14:04:32;4.62;71.44
63051;SHT30;49136;47.416;19.402;2024-01-15T14:06:57;4.44;72.52
63051;SHT30;49136;47.416;19.402;2024-01-15T14:09:23;4.17;72.14
63051;SHT30;49136;47.416;19.402;2024-01-15T14:11:48;4.00;72.05
63051;SHT30;49136;47.416;19.402;2024-01-15T14:14:14;3.86;73.44
63051;SHT30;49136;47.416;19.402;2024-01-15T14:16:39;3.81;74.33
63051;SHT30;49136;47.416;19.402;2024-01-15T14:19:05;3.65;74.49
63051;SHT30;49136;47.416;19.402;2024-01-15T14:21:34;3.51;74.39
63051;SHT30;49136;47.416;19.402;2024-01-15T14:24:00;3.34;74.82
63051;SHT30;49136;47.416;19.402;2024-01-15T14:26:26;3.27;75.14
63051;SHT30;49136;47.416;19.402;2024-01-15T14:28:51;3.20;75.40
63051;SHT30;49136;47.416;19.402;2024-01-15T14:31:17;3.19;75.08
63051;SHT30;49136;47.416;19.402;2024-01-15T14:33:43;3.10;75.90
63051;SHT30;49136;47.416;19.402;2024-01-15T14:36:08;3.12;75.51
63051;SHT30;49136;47.416;19.402;2024-01-15T14:38:33;3.12;75.68
63051;SHT30;49136;47.416;19.402;2024-01-15T14:41:00;3.10;75.63
63051;SHT30;49136;47.416;19.402;2024-01-15T14:43:25;3.16;75.71
63051;SHT30;49136;47.416;19.402;2024-01-15T14:45:51;3.24;74.75
63051;SHT30;49136;47.416;19.402;2024-01-15T14:48:16;3.35;74.20
63051;SHT30;49136;47.416;19.402;2024-01-15T14:50:42;3.42;74.38
63051;SHT30;49136;47.416;19.402;2024-01-15T14:53:07;3.42;74.49
63051;SHT30;49136;47.416;19.402;2024-01-15T14:55:32;3.40;74.21
63051;SHT30;49136;47.416;19.402;2024-01-15T14:57:58;3.35;74.83
63051;SHT30;49136;47.416;19.402;2024-01-15T15:00:23;3.42;74.46
63051;SHT30;49136;47.416;19.402;2024-01-15T15:02:49;3.40;74.70
63051;SHT30;49136;47.416;19.402;2024-01-15T15:05:14;3.38;74.23
63051;SHT30;49136;47.416;19.402;2024-01-15T15:07:42;3.22;75.35
63051;SHT30;49136;47.416;19.402;2024-01-15T15:10:08;3.14;75.25
63051;SHT30;49136;47.416;19.402;2024-01-15T15:12:34;3.20;75.21
63051;SHT30;49136;47.416;19.402;2024-01-15T15:14:59;3.10;76.11
63051;SHT30;49136;47.416;19.402;2024-01-15T15:17:25;3.00;75.97
63051;SHT30;49136;47.416;19.402;2024-01-15T15:19:51;2.92;76.94
63051;SHT30;49136;47.416;19.402;2024-01-15T15:22:18;2.79;77.25
63051;SHT30;49136;47.416;19.402;2024-01-15T15:24:44;2.74;77.94
63051;SHT30;49136;47.416;19.402;2024-01-15T15:27:09;2.62;78.32